Time;durP1;ratioP1;P1;durP2;ratioP2;P2;SDS_P1;SDS_P2;PMS_P1;PMS_P2;Temp;Humidity;BMP_temperature;BMP_pressure;BME280_temperature;BME280_humidity;BME280_pressure;Samples;Min_cycle;Max_cycle;Signal;HPM_P1;HPM_P2
2022/05/07 00:00:20;;;;;;;68.33;44.73;;;;;;;;;;783589;179;919255;-66
2022/05/07 00:02:44;;;;;;;57.83;39.77;;;;;;;;;;778984;179;919513;-65
2022/05/07 00:05:10;;;;;;;66.70;42.13;;;;;;;;;;775697;179;920397;-66
2022/05/07 00:07:36;;;;;;;56.70;41.57;;;;;;;;;;780343;179;919233;-65
2022/05/07 00:10:02;;;;;;;66.53;42.10;;;;;;;;;;771389;180;919214;-65
2022/05/07 00:12:28;;;;;;;65.00;41.33;;;;;;;;;;775034;180;919412;-65
2022/05/07 00:14:54;;;;;;;59.63;39.33;;;;;;;;;;780138;179;919127;-65
2022/05/07 00:19:52;;;;;;;67.60;42.50;;;;;;;;;;776217;179;919209;-65
2022/05/07 00:22:17;;;;;;;73.00;39.60;;;;;;;;;;777840;179;919181;-65
2022/05/07 00:24:43;;;;;;;62.00;41.25;;;;;;;;;;781636;180;1022182;-65
2022/05/07 00:27:09;;;;;;;60.97;41.40;;;;;;;;;;774401;179;919435;-65
2022/05/07 00:29:35;;;;;;;74.47;45.07;;;;;;;;;;765041;182;920430;-65
2022/05/07 00:32:01;;;;;;;66.90;43.20;;;;;;;;;;776083;180;920175;-65
2022/05/07 00:34:26;;;;;;;76.50;42.90;;;;;;;;;;779115;179;919493;-66
2022/05/07 00:36:52;;;;;;;71.47;45.20;;;;;;;;;;780031;179;919729;-65
2022/05/07 00:39:18;;;;;;;73.37;44.53;;;;;;;;;;779533;179;919116;-65
2022/05/07 00:41:44;;;;;;;66.13;43.67;;;;;;;;;;782132;179;919530;-65
2022/05/07 00:44:10;;;;;;;59.50;43.07;;;;;;;;;;776136;177;919636;-65
2022/05/07 00:46:36;;;;;;;65.30;42.60;;;;;;;;;;775950;179;919398;-66
2022/05/07 00:49:01;;;;;;;62.17;40.50;;;;;;;;;;783130;180;922349;-65
2022/05/07 00:51:33;;;;;;;66.57;40.83;;;;;;;;;;776250;180;919464;-65
2022/05/07 00:54:00;;;;;;;57.40;37.73;;;;;;;;;;777757;180;919504;-65
2022/05/07 00:56:26;;;;;;;55.70;36.50;;;;;;;;;;776574;179;919754;-65
2022/05/07 00:58:52;;;;;;;60.90;39.97;;;;;;;;;;783429;180;1020987;-65
2022/05/07 01:01:17;;;;;;;73.37;43.03;;;;;;;;;;774973;180;919570;-65
2022/05/07 01:03:45;;;;;;;52.37;36.07;;;;;;;;;;771637;177;919500;-65
2022/05/07 01:06:09;;;;;;;50.30;35.83;;;;;;;;;;779895;179;919141;-65
2022/05/07 01:08:35;;;;;;;54.70;37.30;;;;;;;;;;772397;180;919427;-65
2022/05/07 01:11:01;;;;;;;62.33;39.50;;;;;;;;;;775835;180;919521;-65
2022/05/07 01:13:27;;;;;;;61.07;39.33;;;;;;;;;;777632;179;919625;-65
2022/05/07 01:15:53;;;;;;;57.93;38.67;;;;;;;;;;771457;179;919255;-65
2022/05/07 01:18:19;;;;;;;61.87;41.53;;;;;;;;;;777759;179;919540;-65
2022/05/07 01:20:45;;;;;;;68.20;44.53;;;;;;;;;;776965;179;920404;-66
2022/05/07 01:23:11;;;;;;;66.27;42.93;;;;;;;;;;769215;181;920383;-65
2022/05/07 01:25:37;;;;;;;68.73;43.20;;;;;;;;;;769403;179;919868;-66
2022/05/07 01:28:03;;;;;;;70.20;42.67;;;;;;;;;;776448;179;919348;-65
2022/05/07 01:30:29;;;;;;;69.87;42.40;;;;;;;;;;776936;179;919587;-64
2022/05/07 01:32:54;;;;;;;72.40;44.93;;;;;;;;;;774159;179;918897;-65
2022/05/07 01:35:20;;;;;;;68.20;41.97;;;;;;;;;;772972;181;919314;-65
2022/05/07 01:37:46;;;;;;;71.63;44.20;;;;;;;;;;777919;180;918959;-65
2022/05/07 01:40:12;;;;;;;83.57;44.83;;;;;;;;;;776777;179;921042;-65
2022/05/07 01:42:39;;;;;;;67.87;43.50;;;;;;;;;;766874;179;920918;-65
2022/05/07 01:45:04;;;;;;;72.43;48.00;;;;;;;;;;771018;178;919315;-64
2022/05/07 01:50:02;;;;;;;80.37;48.00;;;;;;;;;;771340;178;916845;-64
2022/05/07 01:52:27;;;;;;;81.70;50.73;;;;;;;;;;777068;180;916424;-63
2022/05/07 01:54:53;;;;;;;69.93;46.07;;;;;;;;;;780347;180;1533901;-63
2022/05/07 01:57:19;;;;;;;71.10;42.73;;;;;;;;;;776451;179;919516;-64
2022/05/07 01:59:45;;;;;;;72.10;43.37;;;;;;;;;;773896;180;920307;-64
2022/05/07 02:02:11;;;;;;;76.30;43.92;;;;;;;;;;773362;180;919522;-62
2022/05/07 02:04:37;;;;;;;81.43;45.20;;;;;;;;;;764611;182;918809;-64
2022/05/07 02:07:03;;;;;;;65.90;41.83;;;;;;;;;;753680;184;920073;-63
2022/05/07 02:09:29;;;;;;;75.57;44.25;;;;;;;;;;776556;179;920296;-62
2022/05/07 02:11:55;;;;;;;72.03;44.03;;;;;;;;;;779297;179;919555;-62
2022/05/07 02:14:20;;;;;;;76.73;45.70;;;;;;;;;;774213;179;919489;-63
2022/05/07 02:16:46;;;;;;;73.63;43.67;;;;;;;;;;773943;179;918959;-63
2022/05/07 02:19:12;;;;;;;75.23;42.87;;;;;;;;;;777335;180;918871;-63
2022/05/07 02:21:38;;;;;;;85.33;46.57;;;;;;;;;;776780;179;919071;-64
2022/05/07 02:24:04;;;;;;;70.50;44.37;;;;;;;;;;776843;179;919760;-63
2022/05/07 02:26:30;;;;;;;65.63;40.30;;;;;;;;;;779633;179;919248;-63
2022/05/07 02:28:56;;;;;;;69.57;37.70;;;;;;;;;;775399;179;919161;-64
2022/05/07 02:31:22;;;;;;;63.37;36.77;;;;;;;;;;774499;177;919262;-64
2022/05/07 02:33:48;;;;;;;65.00;36.83;;;;;;;;;;777911;180;919508;-63
2022/05/07 02:36:13;;;;;;;59.30;38.33;;;;;;;;;;779629;179;918353;-63
2022/05/07 02:38:40;;;;;;;62.93;39.33;;;;;;;;;;777362;179;919960;-63
2022/05/07 02:43:37;;;;;;;55.33;35.17;;;;;;;;;;781722;177;919689;-65
2022/05/07 02:46:03;;;;;;;51.30;34.27;;;;;;;;;;774068;179;919104;-65
2022/05/07 02:48:28;;;;;;;50.80;35.43;;;;;;;;;;776754;179;920027;-64
2022/05/07 02:50:54;;;;;;;53.93;33.90;;;;;;;;;;775070;179;919317;-64
2022/05/07 02:53:20;;;;;;;51.72;32.80;;;;;;;;;;780110;180;919252;-65
2022/05/07 02:55:46;;;;;;;50.30;31.03;;;;;;;;;;773416;180;919487;-64
2022/05/07 02:58:12;;;;;;;53.57;32.80;;;;;;;;;;773576;179;920828;-65
2022/05/07 03:00:38;;;;;;;51.53;33.17;;;;;;;;;;782351;180;620378;-65
2022/05/07 03:03:04;;;;;;;55.33;33.33;;;;;;;;;;776962;180;920317;-65
2022/05/07 03:05:29;;;;;;;48.03;29.92;;;;;;;;;;778727;179;919096;-64
2022/05/07 03:07:59;;;;;;;45.13;31.60;;;;;;;;;;776224;179;919500;-64
2022/05/07 03:10:21;;;;;;;48.05;28.92;;;;;;;;;;771190;180;918767;-64
2022/05/07 03:12:47;;;;;;;44.67;29.43;;;;;;;;;;776870;179;919682;-65
2022/05/07 03:15:13;;;;;;;47.03;30.80;;;;;;;;;;778765;179;919727;-63
2022/05/07 03:17:39;;;;;;;44.50;29.60;;;;;;;;;;779451;180;919729;-65
2022/05/07 03:20:09;;;;;;;43.63;30.07;;;;;;;;;;775094;177;921600;-65
2022/05/07 03:22:31;;;;;;;49.37;31.47;;;;;;;;;;774706;177;920814;-64
2022/05/07 03:24:57;;;;;;;43.90;32.17;;;;;;;;;;771486;182;919970;-65
2022/05/07 03:27:23;;;;;;;44.38;32.17;;;;;;;;;;774163;177;920479;-64
2022/05/07 03:29:48;;;;;;;45.47;31.10;;;;;;;;;;779682;179;916405;-64
2022/05/07 03:32:14;;;;;;;45.20;31.43;;;;;;;;;;779134;179;919233;-64
2022/05/07 03:34:40;;;;;;;52.50;32.73;;;;;;;;;;765770;180;919553;-64
2022/05/07 03:37:06;;;;;;;49.43;33.10;;;;;;;;;;772952;180;921883;-65
2022/05/07 03:39:32;;;;;;;50.70;32.40;;;;;;;;;;782680;179;920622;-64
2022/05/07 03:41:58;;;;;;;48.50;33.63;;;;;;;;;;763273;181;918930;-64
2022/05/07 03:44:23;;;;;;;49.60;32.33;;;;;;;;;;772536;180;920454;-64
2022/05/07 03:46:49;;;;;;;65.17;33.20;;;;;;;;;;776495;179;920107;-63
2022/05/07 03:49:16;;;;;;;49.57;34.60;;;;;;;;;;782269;178;919383;-65
2022/05/07 03:54:25;;;;;;;52.87;30.40;;;;;;;;;;766128;179;919809;-65
2022/05/07 03:56:50;;;;;;;44.63;30.30;;;;;;;;;;779808;179;919069;-65
2022/05/07 03:59:16;;;;;;;50.50;30.83;;;;;;;;;;772933;179;918795;-65
2022/05/07 04:01:42;;;;;;;44.88;30.40;;;;;;;;;;770736;179;919315;-65
2022/05/07 04:04:08;;;;;;;48.30;32.60;;;;;;;;;;777750;179;918709;-65
2022/05/07 04:06:34;;;;;;;51.17;33.20;;;;;;;;;;778321;178;916543;-64
2022/05/07 04:09:00;;;;;;;41.50;30.10;;;;;;;;;;776701;177;919156;-64
2022/05/07 04:11:25;;;;;;;49.10;32.77;;;;;;;;;;773889;179;920236;-63
2022/05/07 04:13:51;;;;;;;42.47;30.33;;;;;;;;;;774766;179;920333;-64
2022/05/07 04:16:17;;;;;;;53.27;34.00;;;;;;;;;;784203;179;919269;-64
2022/05/07 04:18:43;;;;;;;54.30;35.27;;;;;;;;;;775588;179;919074;-65
2022/05/07 04:21:09;;;;;;;58.30;35.27;;;;;;;;;;775809;179;919156;-64
2022/05/07 04:23:35;;;;;;;51.33;31.00;;;;;;;;;;780524;177;851596;-64
2022/05/07 04:26:01;;;;;;;50.60;33.13;;;;;;;;;;773584;179;919914;-64
2022/05/07 04:28:26;;;;;;;56.17;33.30;;;;;;;;;;773114;177;918333;-64
2022/05/07 04:30:52;;;;;;;51.33;33.73;;;;;;;;;;780811;179;920238;-64
2022/05/07 04:33:18;;;;;;;45.40;31.97;;;;;;;;;;769092;180;922235;-65
2022/05/07 04:35:44;;;;;;;45.40;31.40;;;;;;;;;;776200;177;915761;-65
2022/05/07 04:38:10;;;;;;;42.63;29.53;;;;;;;;;;774004;180;931279;-64
2022/05/07 04:40:36;;;;;;;44.67;31.53;;;;;;;;;;770432;180;919732;-65
2022/05/07 04:43:01;;;;;;;51.50;30.80;;;;;;;;;;774223;179;923217;-66
2022/05/07 04:45:28;;;;;;;58.20;35.43;;;;;;;;;;777326;179;918265;-65
2022/05/07 04:47:54;;;;;;;64.97;34.43;;;;;;;;;;778923;179;918908;-65
2022/05/07 04:50:20;;;;;;;57.60;35.70;;;;;;;;;;775393;178;919554;-65
2022/05/07 04:52:46;;;;;;;57.17;35.97;;;;;;;;;;775330;179;913870;-65
2022/05/07 04:55:12;;;;;;;66.57;38.70;;;;;;;;;;778429;179;912416;-65
2022/05/07 04:57:38;;;;;;;53.73;38.03;;;;;;;;;;772548;177;915478;-65
2022/05/07 05:00:04;;;;;;;68.10;36.10;;;;;;;;;;774515;178;912260;-65
2022/05/07 05:02:30;;;;;;;63.23;40.67;;;;;;;;;;775017;178;922572;-64
2022/05/07 05:04:56;;;;;;;67.60;37.70;;;;;;;;;;767567;181;915064;-65
2022/05/07 05:07:22;;;;;;;59.13;37.40;;;;;;;;;;757556;183;922263;-65
2022/05/07 05:09:47;;;;;;;53.60;36.53;;;;;;;;;;756448;183;1132868;-65
2022/05/07 05:12:13;;;;;;;54.27;37.03;;;;;;;;;;781860;177;915049;-65
2022/05/07 05:17:11;;;;;;;63.53;38.13;;;;;;;;;;773540;180;916671;-65
2022/05/07 05:19:37;;;;;;;52.33;34.80;;;;;;;;;;774036;180;916388;-65
2022/05/07 05:22:03;;;;;;;56.93;34.27;;;;;;;;;;772293;180;915011;-65
2022/05/07 05:24:28;;;;;;;48.10;32.57;;;;;;;;;;775940;179;920368;-66
2022/05/07 05:26:54;;;;;;;52.77;34.20;;;;;;;;;;776167;180;915269;-65
2022/05/07 05:29:20;;;;;;;47.37;32.63;;;;;;;;;;781978;180;919673;-65
2022/05/07 05:31:46;;;;;;;46.27;31.60;;;;;;;;;;774825;180;919146;-65
2022/05/07 05:34:12;;;;;;;47.08;34.00;;;;;;;;;;779378;179;920764;-65
2022/05/07 05:36:38;;;;;;;48.73;33.07;;;;;;;;;;783990;179;953781;-67
2022/05/07 05:39:06;;;;;;;59.67;46.37;;;;;;;;;;771743;179;919840;-66
2022/05/07 05:41:29;;;;;;;44.37;32.60;;;;;;;;;;777425;180;919620;-65
2022/05/07 05:43:55;;;;;;;46.63;34.30;;;;;;;;;;781644;179;919445;-65
2022/05/07 05:46:21;;;;;;;44.33;30.77;;;;;;;;;;774448;180;919218;-65
2022/05/07 05:48:47;;;;;;;42.77;32.60;;;;;;;;;;771832;177;919405;-65
2022/05/07 05:51:13;;;;;;;68.73;50.87;;;;;;;;;;768496;176;971669;-65
2022/05/07 05:53:39;;;;;;;328.97;223.63;;;;;;;;;;774804;179;1021417;-63
2022/05/07 05:56:05;;;;;;;69.50;45.10;;;;;;;;;;775109;177;919703;-62
2022/05/07 05:58:33;;;;;;;252.48;146.62;;;;;;;;;;772908;180;930486;-63
2022/05/07 06:00:59;;;;;;;99.17;64.53;;;;;;;;;;782684;179;1022210;-62
2022/05/07 06:03:25;;;;;;;103.20;69.50;;;;;;;;;;780101;179;920015;-62
2022/05/07 06:05:51;;;;;;;71.03;50.50;;;;;;;;;;780030;179;919407;-62
2022/05/07 06:08:17;;;;;;;56.83;34.78;;;;;;;;;;781527;179;919222;-62
2022/05/07 06:10:43;;;;;;;77.47;55.27;;;;;;;;;;779109;178;920682;-62
2022/05/07 06:13:09;;;;;;;45.00;35.17;;;;;;;;;;776316;178;919754;-62
2022/05/07 06:15:34;;;;;;;51.53;35.40;;;;;;;;;;773464;181;920080;-62
2022/05/07 06:18:00;;;;;;;62.80;41.63;;;;;;;;;;780846;179;919907;-61
2022/05/07 06:20:26;;;;;;;57.67;41.23;;;;;;;;;;777914;180;919280;-62
2022/05/07 06:22:52;;;;;;;71.40;58.00;;;;;;;;;;774176;180;919577;-62
2022/05/07 06:27:50;;;;;;;43.53;34.67;;;;;;;;;;774054;180;931990;-61
2022/05/07 06:30:15;;;;;;;41.73;31.43;;;;;;;;;;772081;177;919468;-61
2022/05/07 06:32:41;;;;;;;45.67;32.20;;;;;;;;;;774799;179;920203;-61
2022/05/07 06:35:07;;;;;;;47.27;34.30;;;;;;;;;;780937;179;919631;-61
2022/05/07 06:37:34;;;;;;;44.10;33.63;;;;;;;;;;776785;178;919524;-61
2022/05/07 06:39:59;;;;;;;52.63;36.50;;;;;;;;;;776447;179;920416;-62
2022/05/07 06:42:25;;;;;;;45.83;35.20;;;;;;;;;;779642;180;919716;-62
2022/05/07 06:44:51;;;;;;;52.37;35.67;;;;;;;;;;774527;180;919917;-62
2022/05/07 06:47:17;;;;;;;53.07;38.07;;;;;;;;;;774861;179;1021831;-62
2022/05/07 06:49:43;;;;;;;46.57;31.60;;;;;;;;;;782479;177;628670;-62
2022/05/07 06:52:09;;;;;;;40.40;28.73;;;;;;;;;;777377;179;919758;-61
2022/05/07 06:54:35;;;;;;;44.30;30.50;;;;;;;;;;779467;179;629005;-61
2022/05/07 06:57:01;;;;;;;47.50;31.93;;;;;;;;;;777334;179;919786;-62
2022/05/07 06:59:27;;;;;;;47.07;35.33;;;;;;;;;;777307;179;903265;-62
2022/05/07 07:01:54;;;;;;;42.43;31.50;;;;;;;;;;769468;183;631597;-61
2022/05/07 07:04:20;;;;;;;40.00;32.70;;;;;;;;;;777462;179;619744;-64
2022/05/07 07:06:46;;;;;;;43.50;28.93;;;;;;;;;;782091;180;616218;-62
2022/05/07 07:09:11;;;;;;;44.93;34.07;;;;;;;;;;777879;179;629599;-62
2022/05/07 07:11:37;;;;;;;45.60;29.70;;;;;;;;;;778379;180;629671;-62
2022/05/07 07:14:03;;;;;;;49.03;34.37;;;;;;;;;;783570;179;616701;-63
2022/05/07 07:16:29;;;;;;;43.80;28.80;;;;;;;;;;778508;180;625526;-62
2022/05/07 07:18:55;;;;;;;43.53;31.27;;;;;;;;;;781216;179;616964;-62
2022/05/07 07:21:21;;;;;;;41.87;28.30;;;;;;;;;;780260;178;629904;-63
2022/05/07 07:23:47;;;;;;;39.90;28.00;;;;;;;;;;783387;178;624281;-63
2022/05/07 07:26:12;;;;;;;36.03;27.90;;;;;;;;;;780990;179;637469;-63
2022/05/07 07:28:39;;;;;;;39.90;29.20;;;;;;;;;;780709;178;622109;-63
2022/05/07 07:31:04;;;;;;;47.67;30.33;;;;;;;;;;783002;179;623273;-62
2022/05/07 07:33:30;;;;;;;43.00;28.87;;;;;;;;;;778575;180;625038;-62
2022/05/07 07:35:56;;;;;;;36.07;25.63;;;;;;;;;;779848;178;634816;-62
2022/05/07 07:38:22;;;;;;;37.40;26.43;;;;;;;;;;783246;179;644403;-62
2022/05/07 07:40:50;;;;;;;41.40;28.70;;;;;;;;;;779469;180;627249;-61
2022/05/07 07:43:13;;;;;;;44.73;29.97;;;;;;;;;;780039;179;619276;-62
2022/05/07 07:48:11;;;;;;;41.77;29.27;;;;;;;;;;785386;178;629593;-61
2022/05/07 07:50:38;;;;;;;36.37;23.33;;;;;;;;;;780806;177;620854;-62
2022/05/07 07:53:03;;;;;;;35.93;25.03;;;;;;;;;;779238;179;633069;-62
2022/05/07 07:55:28;;;;;;;82.17;64.97;;;;;;;;;;781849;179;630624;-61
2022/05/07 07:57:55;;;;;;;44.67;29.87;;;;;;;;;;777491;178;626997;-61
2022/05/07 08:00:20;;;;;;;47.37;34.27;;;;;;;;;;778992;179;635884;-62
2022/05/07 08:02:46;;;;;;;34.83;26.90;;;;;;;;;;779607;179;629778;-62
2022/05/07 08:05:12;;;;;;;39.03;29.13;;;;;;;;;;776153;180;614527;-62
2022/05/07 08:12:41;;;;;;;124.27;70.03;;;;;;;;;;778279;177;633609;-62
2022/05/07 08:15:07;;;;;;;116.67;71.87;;;;;;;;;;774381;181;766543;-61
2022/05/07 08:17:33;;;;;;;60.50;37.70;;;;;;;;;;776710;178;619342;-61
2022/05/07 08:19:59;;;;;;;50.87;31.30;;;;;;;;;;780148;180;627165;-61
2022/05/07 08:22:24;;;;;;;44.33;33.27;;;;;;;;;;781206;178;626628;-61
2022/05/07 08:24:50;;;;;;;53.87;33.87;;;;;;;;;;777413;179;632724;-61
2022/05/07 08:27:16;;;;;;;54.93;37.00;;;;;;;;;;775802;181;625124;-61
2022/05/07 08:29:42;;;;;;;47.60;30.10;;;;;;;;;;778438;181;626919;-62
2022/05/07 08:32:08;;;;;;;42.10;29.90;;;;;;;;;;779457;179;621257;-61
2022/05/07 08:34:34;;;;;;;36.83;25.90;;;;;;;;;;783777;178;634480;-62
2022/05/07 08:37:00;;;;;;;47.57;30.90;;;;;;;;;;782474;178;628876;-62
2022/05/07 08:39:27;;;;;;;76.77;42.03;;;;;;;;;;779164;179;811392;-61
2022/05/07 08:41:51;;;;;;;78.20;42.30;;;;;;;;;;778234;179;615358;-62
2022/05/07 08:44:17;;;;;;;50.97;28.60;;;;;;;;;;779116;179;629043;-62
2022/05/07 08:46:43;;;;;;;54.07;29.47;;;;;;;;;;785128;178;617341;-61
2022/05/07 08:49:09;;;;;;;60.73;32.03;;;;;;;;;;777980;180;656141;-62
2022/05/07 08:51:35;;;;;;;62.17;32.03;;;;;;;;;;780931;180;626349;-61
2022/05/07 08:54:01;;;;;;;58.53;30.27;;;;;;;;;;783581;179;629024;-62
2022/05/07 08:56:27;;;;;;;32.73;19.00;;;;;;;;;;778150;179;653808;-62
2022/05/07 08:58:53;;;;;;;26.87;19.10;;;;;;;;;;779290;179;639340;-62
2022/05/07 09:01:19;;;;;;;28.48;19.25;;;;;;;;;;782918;179;624408;-62
2022/05/07 09:03:45;;;;;;;28.87;20.27;;;;;;;;;;775815;181;644228;-62
2022/05/07 09:06:14;;;;;;;32.67;21.67;;;;;;;;;;774159;179;619079;-63
2022/05/07 09:08:40;;;;;;;35.13;20.67;;;;;;;;;;781448;177;642015;-62
2022/05/07 09:11:06;;;;;;;32.00;22.20;;;;;;;;;;782437;180;616676;-62
2022/05/07 09:13:32;;;;;;;37.40;23.37;;;;;;;;;;781139;178;626983;-61
2022/05/07 09:15:58;;;;;;;30.93;19.90;;;;;;;;;;778187;177;640950;-61
2022/05/07 09:18:24;;;;;;;30.37;18.50;;;;;;;;;;780890;180;615426;-61
2022/05/07 09:20:55;;;;;;;33.63;22.97;;;;;;;;;;778469;178;630245;-61
2022/05/07 09:23:22;;;;;;;31.67;19.23;;;;;;;;;;778205;179;624620;-61
2022/05/07 09:25:48;;;;;;;36.60;22.27;;;;;;;;;;777546;177;629892;-61
2022/05/07 09:28:13;;;;;;;31.83;23.03;;;;;;;;;;783188;179;650928;-61
2022/05/07 09:30:42;;;;;;;30.40;22.43;;;;;;;;;;777661;178;628277;-61
2022/05/07 09:33:06;;;;;;;35.73;23.60;;;;;;;;;;777896;179;626236;-60
2022/05/07 09:38:02;;;;;;;31.80;21.63;;;;;;;;;;781615;180;643408;-61
2022/05/07 09:40:28;;;;;;;36.90;24.00;;;;;;;;;;775142;179;635075;-62
2022/05/07 09:42:57;;;;;;;34.90;22.60;;;;;;;;;;779696;179;625679;-62
2022/05/07 09:45:26;;;;;;;35.77;22.27;;;;;;;;;;780943;177;630293;-64
2022/05/07 09:47:52;;;;;;;34.00;21.10;;;;;;;;;;780949;178;634239;-62
2022/05/07 09:50:20;;;;;;;34.07;21.20;;;;;;;;;;779114;179;642432;-63
2022/05/07 09:57:49;;;;;;;31.23;21.43;;;;;;;;;;782328;179;676997;-63
2022/05/07 10:00:15;;;;;;;32.80;24.80;;;;;;;;;;778455;179;625134;-64
2022/05/07 10:02:49;;;;;;;31.57;22.63;;;;;;;;;;778200;178;629014;-64
2022/05/07 10:05:19;;;;;;;28.50;18.73;;;;;;;;;;782014;178;633690;-66
2022/05/07 10:07:46;;;;;;;27.47;18.90;;;;;;;;;;779969;179;654860;-64
2022/05/07 10:10:17;;;;;;;32.83;22.80;;;;;;;;;;777158;179;619701;-65
2022/05/07 10:12:44;;;;;;;33.47;23.20;;;;;;;;;;779055;178;613550;-64
2022/05/07 10:15:12;;;;;;;29.13;20.57;;;;;;;;;;783996;179;618204;-64
2022/05/07 10:17:36;;;;;;;34.50;22.63;;;;;;;;;;779524;180;631012;-64
2022/05/07 10:20:05;;;;;;;34.83;21.30;;;;;;;;;;779476;179;643188;-65
2022/05/07 10:22:31;;;;;;;29.17;21.53;;;;;;;;;;778514;179;636384;-64
2022/05/07 10:25:04;;;;;;;31.77;22.00;;;;;;;;;;780856;179;627833;-63
2022/05/07 10:27:31;;;;;;;36.33;23.30;;;;;;;;;;779473;179;619297;-63
2022/05/07 10:30:06;;;;;;;30.50;21.70;;;;;;;;;;777163;179;623583;-62
2022/05/07 10:32:48;;;;;;;39.23;23.03;;;;;;;;;;777574;177;636085;-62
2022/05/07 10:35:14;;;;;;;34.27;22.87;;;;;;;;;;779561;178;624493;-63
2022/05/07 10:37:40;;;;;;;28.17;21.60;;;;;;;;;;784097;179;618301;-62
2022/05/07 10:40:07;;;;;;;37.30;25.27;;;;;;;;;;778444;179;626132;-62
2022/05/07 10:42:32;;;;;;;33.03;24.27;;;;;;;;;;776514;180;632927;-61
2022/05/07 10:45:01;;;;;;;32.67;25.20;;;;;;;;;;778487;179;633716;-62
2022/05/07 10:47:24;;;;;;;38.20;24.57;;;;;;;;;;778497;179;618602;-63
2022/05/07 10:49:56;;;;;;;36.93;24.73;;;;;;;;;;776853;179;635146;-63
2022/05/07 10:52:31;;;;;;;34.53;25.37;;;;;;;;;;775805;179;616958;-62
2022/05/07 10:55:03;;;;;;;35.43;24.47;;;;;;;;;;774739;179;622639;-63
2022/05/07 10:57:29;;;;;;;35.70;24.07;;;;;;;;;;786020;177;628870;-61
2022/05/07 10:59:55;;;;;;;30.60;23.00;;;;;;;;;;781154;179;622370;-62
2022/05/07 11:02:21;;;;;;;33.33;21.90;;;;;;;;;;777066;179;637898;-62
2022/05/07 11:04:47;;;;;;;31.00;22.30;;;;;;;;;;781134;179;633406;-62
2022/05/07 11:07:20;;;;;;;28.40;19.20;;;;;;;;;;777986;179;630930;-63
2022/05/07 11:09:45;;;;;;;28.67;20.07;;;;;;;;;;778712;179;634337;-64
2022/05/07 11:12:11;;;;;;;30.43;20.80;;;;;;;;;;780658;178;625531;-63
2022/05/07 11:14:37;;;;;;;27.73;17.53;;;;;;;;;;783912;179;618637;-63
2022/05/07 11:17:04;;;;;;;25.33;17.93;;;;;;;;;;775777;177;669372;-64
2022/05/07 11:19:30;;;;;;;30.67;17.93;;;;;;;;;;782738;178;623600;-64
2022/05/07 11:21:55;;;;;;;21.67;15.10;;;;;;;;;;780372;179;613676;-65
2022/05/07 11:24:21;;;;;;;22.33;14.90;;;;;;;;;;781672;177;625574;-64
2022/05/07 11:26:48;;;;;;;28.13;15.40;;;;;;;;;;777916;179;633847;-64
2022/05/07 11:29:14;;;;;;;28.67;17.00;;;;;;;;;;779625;179;628935;-64
2022/05/07 11:31:39;;;;;;;20.00;15.43;;;;;;;;;;782913;179;649730;-65
2022/05/07 11:34:07;;;;;;;24.93;16.40;;;;;;;;;;779792;179;621971;-65
2022/05/07 11:36:32;;;;;;;22.17;17.20;;;;;;;;;;778447;179;627292;-64
2022/05/07 11:38:58;;;;;;;22.87;16.93;;;;;;;;;;783896;179;618747;-64
2022/05/07 11:41:24;;;;;;;18.50;14.20;;;;;;;;;;782179;177;629904;-64
2022/05/07 11:46:22;;;;;;;20.53;15.37;;;;;;;;;;779723;179;631061;-64
2022/05/07 11:48:48;;;;;;;23.47;14.10;;;;;;;;;;782372;178;635657;-65
2022/05/07 11:51:13;;;;;;;24.73;15.10;;;;;;;;;;778795;180;631213;-67
2022/05/07 11:53:39;;;;;;;20.50;16.80;;;;;;;;;;777880;179;633270;-64
2022/05/07 11:56:06;;;;;;;21.83;14.80;;;;;;;;;;782327;179;624592;-63
2022/05/07 11:58:32;;;;;;;19.27;15.47;;;;;;;;;;778502;177;624355;-64
2022/05/07 12:00:58;;;;;;;20.33;15.33;;;;;;;;;;778274;179;628410;-64
2022/05/07 12:03:23;;;;;;;19.17;14.90;;;;;;;;;;779563;179;627576;-64
2022/05/07 12:05:49;;;;;;;24.47;16.13;;;;;;;;;;780779;179;636095;-65
2022/05/07 12:08:15;;;;;;;22.23;13.77;;;;;;;;;;776060;179;918575;-64
2022/05/07 12:10:42;;;;;;;21.40;13.70;;;;;;;;;;779812;177;908048;-64
2022/05/07 12:13:07;;;;;;;18.97;14.50;;;;;;;;;;783289;177;621209;-65
2022/05/07 12:18:16;;;;;;;21.27;15.60;;;;;;;;;;773210;177;641934;-65
2022/05/07 12:20:42;;;;;;;22.53;16.20;;;;;;;;;;781371;179;636719;-65
2022/05/07 12:30:43;;;;;;;21.30;14.80;;;;;;;;;;777975;177;643104;-65
2022/05/07 12:33:09;;;;;;;22.13;15.33;;;;;;;;;;779451;178;619418;-64
2022/05/07 12:35:35;;;;;;;27.13;16.50;;;;;;;;;;783334;179;620504;-65
2022/05/07 12:38:01;;;;;;;22.60;18.20;;;;;;;;;;779557;180;628530;-65
2022/05/07 12:40:26;;;;;;;25.00;17.23;;;;;;;;;;778560;180;618701;-65
2022/05/07 12:42:53;;;;;;;18.53;14.87;;;;;;;;;;784173;179;618982;-65
2022/05/07 12:45:19;;;;;;;21.17;15.97;;;;;;;;;;780016;179;640375;-65
2022/05/07 12:47:44;;;;;;;23.97;17.80;;;;;;;;;;779755;179;630976;-65
2022/05/07 12:50:10;;;;;;;25.20;16.20;;;;;;;;;;786150;180;619744;-64
2022/05/07 12:52:36;;;;;;;21.47;17.77;;;;;;;;;;780969;179;626805;-65
2022/05/07 12:55:01;;;;;;;27.70;19.87;;;;;;;;;;777275;180;625947;-64
2022/05/07 12:57:28;;;;;;;24.17;18.73;;;;;;;;;;780226;180;623442;-64
2022/05/07 12:59:53;;;;;;;27.17;14.53;;;;;;;;;;784407;179;625592;-65
2022/05/07 13:02:19;;;;;;;26.60;18.77;;;;;;;;;;781697;180;630810;-65
2022/05/07 13:04:45;;;;;;;32.60;21.10;;;;;;;;;;781675;180;635622;-65
2022/05/07 13:07:11;;;;;;;27.97;19.50;;;;;;;;;;786194;180;699836;-64
2022/05/07 13:09:37;;;;;;;24.20;18.17;;;;;;;;;;779790;179;617040;-65
2022/05/07 13:12:03;;;;;;;25.03;16.50;;;;;;;;;;779872;179;618385;-64
2022/05/07 13:14:30;;;;;;;28.17;18.90;;;;;;;;;;784159;180;616567;-65
2022/05/07 13:16:54;;;;;;;31.57;20.77;;;;;;;;;;777800;179;617717;-66
2022/05/07 13:19:20;;;;;;;29.80;22.30;;;;;;;;;;775825;179;633114;-65
2022/05/07 13:21:46;;;;;;;26.60;20.73;;;;;;;;;;782109;178;627966;-65
2022/05/07 13:24:14;;;;;;;36.60;24.17;;;;;;;;;;770960;180;637245;-65
2022/05/07 13:26:39;;;;;;;31.83;26.80;;;;;;;;;;771116;180;628426;-65
2022/05/07 13:29:05;;;;;;;24.83;19.80;;;;;;;;;;781066;180;630916;-64
2022/05/07 13:31:31;;;;;;;23.40;17.77;;;;;;;;;;778600;179;619089;-64
2022/05/07 13:33:57;;;;;;;22.60;18.20;;;;;;;;;;772300;182;633442;-65
2022/05/07 13:36:23;;;;;;;26.77;19.80;;;;;;;;;;779998;179;626769;-64
2022/05/07 13:38:49;;;;;;;26.30;19.20;;;;;;;;;;777911;179;628788;-64
2022/05/07 13:41:18;;;;;;;22.40;17.17;;;;;;;;;;774130;179;636350;-66
2022/05/07 13:43:40;;;;;;;27.33;17.07;;;;;;;;;;780497;180;627101;-67
2022/05/07 13:46:06;;;;;;;20.67;16.73;;;;;;;;;;777476;177;915203;-65
2022/05/07 13:48:32;;;;;;;20.73;17.37;;;;;;;;;;783735;180;617248;-65
2022/05/07 13:50:58;;;;;;;26.37;18.10;;;;;;;;;;780604;179;621067;-64
2022/05/07 13:53:24;;;;;;;22.90;17.53;;;;;;;;;;780698;179;618259;-65
2022/05/07 13:55:50;;;;;;;26.80;19.07;;;;;;;;;;781670;179;642522;-66
2022/05/07 13:58:16;;;;;;;26.80;19.57;;;;;;;;;;771624;182;618793;-65
2022/05/07 14:00:41;;;;;;;23.70;18.20;;;;;;;;;;773584;180;638277;-66
2022/05/07 14:03:07;;;;;;;25.37;18.43;;;;;;;;;;779674;180;618645;-65
2022/05/07 14:05:35;;;;;;;28.13;18.30;;;;;;;;;;781419;179;625928;-64
2022/05/07 14:08:00;;;;;;;28.10;17.07;;;;;;;;;;777409;180;634776;-66
2022/05/07 14:10:26;;;;;;;20.10;16.07;;;;;;;;;;778532;179;620089;-66
2022/05/07 14:12:53;;;;;;;20.87;16.17;;;;;;;;;;767551;181;619145;-66
2022/05/07 14:15:18;;;;;;;20.30;15.33;;;;;;;;;;756869;181;624904;-66
2022/05/07 14:17:44;;;;;;;20.93;15.07;;;;;;;;;;776517;179;623987;-65
2022/05/07 14:20:10;;;;;;;18.10;15.27;;;;;;;;;;786107;179;624093;-65
2022/05/07 14:22:36;;;;;;;21.43;15.67;;;;;;;;;;776326;179;634246;-65
2022/05/07 14:25:04;;;;;;;17.33;15.03;;;;;;;;;;780323;177;624828;-66
2022/05/07 14:27:27;;;;;;;23.80;16.33;;;;;;;;;;783946;179;637443;-66
2022/05/07 14:29:55;;;;;;;24.10;16.47;;;;;;;;;;774791;178;632586;-66
2022/05/07 14:32:20;;;;;;;18.37;13.63;;;;;;;;;;783442;178;625079;-65
2022/05/07 14:34:46;;;;;;;16.98;14.27;;;;;;;;;;787634;179;631616;-66
2022/05/07 14:37:12;;;;;;;22.10;16.60;;;;;;;;;;774191;180;641555;-65
2022/05/07 14:39:37;;;;;;;24.70;15.93;;;;;;;;;;779552;179;626627;-66